Covington, Iowa
Current Conditions -  °F | °C
As of 9:16 PM on Saturday 20 Dec 2014 (Local Time) from KCID Reporting Station
Haze Haze  
Wind Chill: 26°   Ceiling: 200
Heat Index: 32°   Visibility: 0.75mi
Dew Point: 32°   Wind: 6mph
Humidity: 100%   Direction: 140°SE
Pressure: 30.15"   Gusts: NA
Location:  42.0483°N, 91.7982°W
Report Text: KCID 210316Z 14005KT 3/4SM BR OVC002 00/00 A3015 RMK AO2 T00000000 $
Loading
Personal Weather Stations






























Interactive Weather Map New forecast layout! Learn more

10-Day Weather Forecast

Advertisements
Track Severe Weather on mobile